Decoded Metar for RPLL (MANILA in PHILIPPINES) (IATA:MNL) | Meteo·Mobile Aviation Weather
aviador You're here:

RPLL Decoded Metar

MANILA in PHILIPPINES
Report Time2019-10-19 22:00:00
UTC Time2019-10-19 22:06:53
Flight Rules vfr VFR
WindVRB at 02 kt
Visibility9999 m
Phenomena:N/A
Clouds:Few 025 Hf
Broken 100 Hf
Expected CloudBase > 800 ft AGL from Temp-Dew spread
Ceiling10,000 ft
Temp27°C (ISA +12)
Dew Point25°C (89% RH)
Heat Index30.6°C
QNH1012 hPa
Density Alt1,916 ft
Elevation69 ft
Report Wrong Elevation
Raw Report
METAR RPLL 192200Z VRB02KT 9999 FEW025 BKN100 27/25 Q1012 NOSIG RMK
A2988=

Extra information for RPLL:More info

Metar Taf Metar & Taf Last 4 Metars F.Rules Stats Wind Profile Meteogram Temp Stats Airport Information Weather charts Add Link Nearby VenuesMetar ALERT Operation Metar Decoded Social comments